sensor_id;sensor_type;location;lat;lon;timestamp;P1;durP1;ratioP1;P2;durP2;ratioP2
16979;SDS011;42288;52.182;21.156;2022-07-29T00:00:38;9.83;;;5.10;;
16979;SDS011;42288;52.182;21.156;2022-07-29T00:03:03;6.53;;;4.10;;
16979;SDS011;42288;52.182;21.156;2022-07-29T00:05:29;8.90;;;4.60;;
16979;SDS011;42288;52.182;21.156;2022-07-29T00:07:55;10.67;;;4.47;;
16979;SDS011;42288;52.182;21.156;2022-07-29T00:10:20;7.53;;;4.37;;
16979;SDS011;42288;52.182;21.156;2022-07-29T00:12:46;8.27;;;4.20;;
16979;SDS011;42288;52.182;21.156;2022-07-29T00:15:11;6.90;;;4.57;;
16979;SDS011;42288;52.182;21.156;2022-07-29T00:17:37;10.57;;;4.60;;
16979;SDS011;42288;52.182;21.156;2022-07-29T00:20:03;6.63;;;3.87;;
16979;SDS011;42288;52.182;21.156;2022-07-29T00:22:29;7.27;;;4.17;;
16979;SDS011;42288;52.182;21.156;2022-07-29T00:24:55;9.93;;;4.43;;
16979;SDS011;42288;52.182;21.156;2022-07-29T00:27:20;10.33;;;5.00;;
16979;SDS011;42288;52.182;21.156;2022-07-29T00:29:46;7.17;;;4.30;;
16979;SDS011;42288;52.182;21.156;2022-07-29T00:32:12;7.13;;;4.50;;
16979;SDS011;42288;52.182;21.156;2022-07-29T00:34:38;10.37;;;5.20;;
16979;SDS011;42288;52.182;21.156;2022-07-29T00:37:22;9.57;;;4.33;;
16979;SDS011;42288;52.182;21.156;2022-07-29T00:39:48;9.67;;;4.23;;
16979;SDS011;42288;52.182;21.156;2022-07-29T00:42:13;8.47;;;4.20;;
16979;SDS011;42288;52.182;21.156;2022-07-29T00:44:39;7.37;;;4.50;;
16979;SDS011;42288;52.182;21.156;2022-07-29T00:47:06;8.63;;;4.13;;
16979;SDS011;42288;52.182;21.156;2022-07-29T00:49:33;8.33;;;4.60;;
16979;SDS011;42288;52.182;21.156;2022-07-29T00:52:03;9.90;;;4.73;;
16979;SDS011;42288;52.182;21.156;2022-07-29T00:54:29;8.63;;;4.60;;
16979;SDS011;42288;52.182;21.156;2022-07-29T00:56:58;5.97;;;4.03;;
16979;SDS011;42288;52.182;21.156;2022-07-29T00:59:25;7.40;;;4.20;;
16979;SDS011;42288;52.182;21.156;2022-07-29T01:01:51;6.93;;;3.97;;
16979;SDS011;42288;52.182;21.156;2022-07-29T01:04:18;9.07;;;4.53;;
16979;SDS011;42288;52.182;21.156;2022-07-29T01:06:44;6.50;;;3.97;;
16979;SDS011;42288;52.182;21.156;2022-07-29T01:09:11;6.60;;;3.80;;
16979;SDS011;42288;52.182;21.156;2022-07-29T01:11:38;6.93;;;3.80;;
16979;SDS011;42288;52.182;21.156;2022-07-29T01:14:04;12.20;;;3.63;;
16979;SDS011;42288;52.182;21.156;2022-07-29T01:16:32;6.73;;;3.67;;
16979;SDS011;42288;52.182;21.156;2022-07-29T01:19:07;5.63;;;3.50;;
16979;SDS011;42288;52.182;21.156;2022-07-29T01:21:51;6.70;;;3.80;;
16979;SDS011;42288;52.182;21.156;2022-07-29T01:30:00;4.63;;;2.97;;
16979;SDS011;42288;52.182;21.156;2022-07-29T01:32:28;6.20;;;3.73;;
16979;SDS011;42288;52.182;21.156;2022-07-29T01:40:24;6.27;;;3.10;;
16979;SDS011;42288;52.182;21.156;2022-07-29T01:42:56;6.77;;;2.90;;
16979;SDS011;42288;52.182;21.156;2022-07-29T01:50:40;7.90;;;2.80;;
16979;SDS011;42288;52.182;21.156;2022-07-29T01:53:21;6.40;;;2.73;;
16979;SDS011;42288;52.182;21.156;2022-07-29T01:55:54;5.00;;;2.30;;
16979;SDS011;42288;52.182;21.156;2022-07-29T01:58:21;6.17;;;2.37;;
16979;SDS011;42288;52.182;21.156;2022-07-29T02:00:49;5.87;;;2.33;;
16979;SDS011;42288;52.182;21.156;2022-07-29T02:03:16;5.87;;;2.30;;
16979;SDS011;42288;52.182;21.156;2022-07-29T02:05:43;8.83;;;2.70;;
16979;SDS011;42288;52.182;21.156;2022-07-29T02:08:11;6.30;;;2.80;;
16979;SDS011;42288;52.182;21.156;2022-07-29T02:10:38;4.50;;;2.13;;
16979;SDS011;42288;52.182;21.156;2022-07-29T02:13:05;6.10;;;2.60;;
16979;SDS011;42288;52.182;21.156;2022-07-29T02:15:34;3.70;;;2.37;;
16979;SDS011;42288;52.182;21.156;2022-07-29T02:18:02;7.57;;;2.50;;
16979;SDS011;42288;52.182;21.156;2022-07-29T02:20:33;3.80;;;2.53;;
16979;SDS011;42288;52.182;21.156;2022-07-29T02:22:59;5.50;;;2.60;;
16979;SDS011;42288;52.182;21.156;2022-07-29T02:25:25;4.00;;;2.80;;
16979;SDS011;42288;52.182;21.156;2022-07-29T02:27:52;4.97;;;2.37;;
16979;SDS011;42288;52.182;21.156;2022-07-29T02:30:19;6.87;;;2.77;;
16979;SDS011;42288;52.182;21.156;2022-07-29T02:32:47;4.00;;;2.27;;
16979;SDS011;42288;52.182;21.156;2022-07-29T02:35:15;4.10;;;2.30;;
16979;SDS011;42288;52.182;21.156;2022-07-29T02:37:42;4.87;;;2.43;;
16979;SDS011;42288;52.182;21.156;2022-07-29T02:40:11;5.13;;;2.40;;
16979;SDS011;42288;52.182;21.156;2022-07-29T02:42:38;4.47;;;2.33;;
16979;SDS011;42288;52.182;21.156;2022-07-29T02:45:07;4.23;;;2.50;;
16979;SDS011;42288;52.182;21.156;2022-07-29T02:47:46;5.60;;;2.23;;
16979;SDS011;42288;52.182;21.156;2022-07-29T02:50:20;5.53;;;2.60;;
16979;SDS011;42288;52.182;21.156;2022-07-29T02:52:57;9.00;;;2.70;;
16979;SDS011;42288;52.182;21.156;2022-07-29T02:55:36;4.60;;;2.00;;
16979;SDS011;42288;52.182;21.156;2022-07-29T02:58:08;5.23;;;2.70;;
16979;SDS011;42288;52.182;21.156;2022-07-29T03:00:47;4.27;;;2.67;;
16979;SDS011;42288;52.182;21.156;2022-07-29T03:03:16;4.73;;;2.13;;
16979;SDS011;42288;52.182;21.156;2022-07-29T03:05:44;6.37;;;2.57;;
16979;SDS011;42288;52.182;21.156;2022-07-29T03:08:10;5.50;;;2.73;;
16979;SDS011;42288;52.182;21.156;2022-07-29T03:10:37;6.47;;;3.27;;
16979;SDS011;42288;52.182;21.156;2022-07-29T03:13:05;4.53;;;2.20;;
16979;SDS011;42288;52.182;21.156;2022-07-29T03:15:32;9.20;;;2.70;;
16979;SDS011;42288;52.182;21.156;2022-07-29T03:17:59;4.30;;;2.47;;
16979;SDS011;42288;52.182;21.156;2022-07-29T03:20:25;8.17;;;2.63;;
16979;SDS011;42288;52.182;21.156;2022-07-29T03:22:51;5.03;;;2.63;;
16979;SDS011;42288;52.182;21.156;2022-07-29T03:25:17;5.57;;;2.50;;
16979;SDS011;42288;52.182;21.156;2022-07-29T03:27:44;3.20;;;2.07;;
16979;SDS011;42288;52.182;21.156;2022-07-29T03:30:11;3.73;;;2.43;;
16979;SDS011;42288;52.182;21.156;2022-07-29T03:32:38;7.30;;;3.13;;
16979;SDS011;42288;52.182;21.156;2022-07-29T03:35:04;8.73;;;3.53;;
16979;SDS011;42288;52.182;21.156;2022-07-29T03:37:30;6.40;;;3.40;;
16979;SDS011;42288;52.182;21.156;2022-07-29T03:39:58;4.13;;;2.43;;
16979;SDS011;42288;52.182;21.156;2022-07-29T03:42:25;5.20;;;2.73;;
16979;SDS011;42288;52.182;21.156;2022-07-29T03:44:55;6.27;;;2.87;;
16979;SDS011;42288;52.182;21.156;2022-07-29T03:47:22;5.43;;;2.90;;
16979;SDS011;42288;52.182;21.156;2022-07-29T03:49:54;4.80;;;3.03;;
16979;SDS011;42288;52.182;21.156;2022-07-29T03:52:25;5.10;;;2.30;;
16979;SDS011;42288;52.182;21.156;2022-07-29T03:54:51;2.90;;;2.43;;
16979;SDS011;42288;52.182;21.156;2022-07-29T03:57:18;7.13;;;2.90;;
16979;SDS011;42288;52.182;21.156;2022-07-29T03:59:48;4.57;;;2.50;;
16979;SDS011;42288;52.182;21.156;2022-07-29T04:02:16;7.03;;;2.90;;
16979;SDS011;42288;52.182;21.156;2022-07-29T04:04:41;4.50;;;2.97;;
16979;SDS011;42288;52.182;21.156;2022-07-29T04:07:09;5.67;;;2.40;;
16979;SDS011;42288;52.182;21.156;2022-07-29T04:09:37;5.30;;;2.77;;
16979;SDS011;42288;52.182;21.156;2022-07-29T04:12:03;3.80;;;2.50;;
16979;SDS011;42288;52.182;21.156;2022-07-29T04:14:29;4.10;;;2.60;;
16979;SDS011;42288;52.182;21.156;2022-07-29T04:16:58;5.33;;;2.50;;
16979;SDS011;42288;52.182;21.156;2022-07-29T04:19:25;5.93;;;2.33;;
16979;SDS011;42288;52.182;21.156;2022-07-29T04:21:50;2.57;;;1.90;;
16979;SDS011;42288;52.182;21.156;2022-07-29T04:24:16;5.67;;;2.00;;
16979;SDS011;42288;52.182;21.156;2022-07-29T04:26:42;3.53;;;1.90;;
16979;SDS011;42288;52.182;21.156;2022-07-29T04:29:07;4.30;;;2.13;;
16979;SDS011;42288;52.182;21.156;2022-07-29T04:31:33;3.33;;;2.00;;
16979;SDS011;42288;52.182;21.156;2022-07-29T04:33:58;5.47;;;1.63;;
16979;SDS011;42288;52.182;21.156;2022-07-29T04:36:24;4.43;;;1.63;;
16979;SDS011;42288;52.182;21.156;2022-07-29T04:38:50;5.70;;;1.67;;
16979;SDS011;42288;52.182;21.156;2022-07-29T04:41:15;2.73;;;1.50;;
16979;SDS011;42288;52.182;21.156;2022-07-29T04:43:41;3.00;;;1.50;;
16979;SDS011;42288;52.182;21.156;2022-07-29T04:46:06;2.97;;;1.67;;
16979;SDS011;42288;52.182;21.156;2022-07-29T04:48:32;2.60;;;1.40;;
16979;SDS011;42288;52.182;21.156;2022-07-29T04:50:58;4.10;;;1.60;;
16979;SDS011;42288;52.182;21.156;2022-07-29T04:53:23;5.97;;;1.57;;
16979;SDS011;42288;52.182;21.156;2022-07-29T04:55:49;3.83;;;1.43;;
16979;SDS011;42288;52.182;21.156;2022-07-29T04:58:15;3.13;;;1.53;;
16979;SDS011;42288;52.182;21.156;2022-07-29T05:00:41;2.40;;;1.40;;
16979;SDS011;42288;52.182;21.156;2022-07-29T05:03:06;2.50;;;1.30;;
16979;SDS011;42288;52.182;21.156;2022-07-29T05:05:32;3.00;;;1.50;;
16979;SDS011;42288;52.182;21.156;2022-07-29T05:07:57;1.80;;;1.20;;
16979;SDS011;42288;52.182;21.156;2022-07-29T05:10:23;2.13;;;1.20;;
16979;SDS011;42288;52.182;21.156;2022-07-29T05:12:49;4.70;;;1.50;;
16979;SDS011;42288;52.182;21.156;2022-07-29T05:15:15;3.90;;;1.47;;
16979;SDS011;42288;52.182;21.156;2022-07-29T05:17:42;4.90;;;1.53;;
16979;SDS011;42288;52.182;21.156;2022-07-29T05:20:08;2.27;;;1.30;;
16979;SDS011;42288;52.182;21.156;2022-07-29T05:22:34;4.83;;;1.60;;
16979;SDS011;42288;52.182;21.156;2022-07-29T05:24:59;3.90;;;1.47;;
16979;SDS011;42288;52.182;21.156;2022-07-29T05:27:25;3.23;;;1.20;;
16979;SDS011;42288;52.182;21.156;2022-07-29T05:29:51;3.50;;;1.40;;
16979;SDS011;42288;52.182;21.156;2022-07-29T05:32:16;3.37;;;1.30;;
16979;SDS011;42288;52.182;21.156;2022-07-29T05:34:42;5.10;;;1.30;;
16979;SDS011;42288;52.182;21.156;2022-07-29T05:37:07;4.90;;;1.30;;
16979;SDS011;42288;52.182;21.156;2022-07-29T05:39:33;5.10;;;1.30;;
16979;SDS011;42288;52.182;21.156;2022-07-29T05:41:58;2.40;;;1.20;;
16979;SDS011;42288;52.182;21.156;2022-07-29T05:44:24;4.70;;;1.37;;
16979;SDS011;42288;52.182;21.156;2022-07-29T05:46:49;4.23;;;1.30;;
16979;SDS011;42288;52.182;21.156;2022-07-29T05:49:15;2.83;;;1.17;;
16979;SDS011;42288;52.182;21.156;2022-07-29T05:51:41;3.73;;;0.93;;
16979;SDS011;42288;52.182;21.156;2022-07-29T05:54:06;2.80;;;0.90;;
16979;SDS011;42288;52.182;21.156;2022-07-29T05:56:32;3.43;;;1.23;;
16979;SDS011;42288;52.182;21.156;2022-07-29T05:58:57;2.00;;;1.23;;
16979;SDS011;42288;52.182;21.156;2022-07-29T06:01:23;2.80;;;1.00;;
16979;SDS011;42288;52.182;21.156;2022-07-29T06:03:49;4.07;;;1.30;;
16979;SDS011;42288;52.182;21.156;2022-07-29T06:06:15;2.40;;;1.03;;
16979;SDS011;42288;52.182;21.156;2022-07-29T06:08:40;1.83;;;0.90;;
16979;SDS011;42288;52.182;21.156;2022-07-29T06:11:06;2.33;;;0.93;;
16979;SDS011;42288;52.182;21.156;2022-07-29T06:13:33;3.97;;;1.00;;
16979;SDS011;42288;52.182;21.156;2022-07-29T06:15:59;1.60;;;0.73;;
16979;SDS011;42288;52.182;21.156;2022-07-29T06:18:24;3.10;;;1.10;;
16979;SDS011;42288;52.182;21.156;2022-07-29T06:20:50;1.30;;;0.80;;
16979;SDS011;42288;52.182;21.156;2022-07-29T06:23:16;5.60;;;0.90;;
16979;SDS011;42288;52.182;21.156;2022-07-29T06:25:43;1.53;;;0.80;;
16979;SDS011;42288;52.182;21.156;2022-07-29T06:28:08;4.20;;;0.80;;
16979;SDS011;42288;52.182;21.156;2022-07-29T06:30:34;4.30;;;1.03;;
16979;SDS011;42288;52.182;21.156;2022-07-29T06:33:00;1.10;;;0.80;;
16979;SDS011;42288;52.182;21.156;2022-07-29T06:35:26;1.87;;;0.80;;
16979;SDS011;42288;52.182;21.156;2022-07-29T06:37:52;2.87;;;0.97;;
16979;SDS011;42288;52.182;21.156;2022-07-29T06:40:18;3.00;;;0.90;;
16979;SDS011;42288;52.182;21.156;2022-07-29T06:43:02;5.13;;;0.80;;
16979;SDS011;42288;52.182;21.156;2022-07-29T06:45:28;1.63;;;0.83;;
16979;SDS011;42288;52.182;21.156;2022-07-29T06:47:53;1.67;;;1.00;;
16979;SDS011;42288;52.182;21.156;2022-07-29T06:50:19;6.23;;;0.90;;
16979;SDS011;42288;52.182;21.156;2022-07-29T06:52:45;1.53;;;1.00;;
16979;SDS011;42288;52.182;21.156;2022-07-29T06:55:10;2.67;;;0.70;;
16979;SDS011;42288;52.182;21.156;2022-07-29T06:57:36;2.93;;;1.37;;
16979;SDS011;42288;52.182;21.156;2022-07-29T07:00:02;1.63;;;0.90;;
16979;SDS011;42288;52.182;21.156;2022-07-29T07:02:29;3.33;;;0.90;;
16979;SDS011;42288;52.182;21.156;2022-07-29T07:04:55;2.27;;;0.90;;
16979;SDS011;42288;52.182;21.156;2022-07-29T07:07:21;4.23;;;1.10;;
16979;SDS011;42288;52.182;21.156;2022-07-29T07:09:46;3.40;;;0.90;;
16979;SDS011;42288;52.182;21.156;2022-07-29T07:12:12;3.30;;;1.00;;
16979;SDS011;42288;52.182;21.156;2022-07-29T07:14:37;5.63;;;0.93;;
16979;SDS011;42288;52.182;21.156;2022-07-29T07:17:04;4.63;;;1.17;;
16979;SDS011;42288;52.182;21.156;2022-07-29T07:19:31;2.17;;;0.90;;
16979;SDS011;42288;52.182;21.156;2022-07-29T07:21:57;2.70;;;1.00;;
16979;SDS011;42288;52.182;21.156;2022-07-29T07:24:23;1.90;;;0.80;;
16979;SDS011;42288;52.182;21.156;2022-07-29T07:26:48;2.00;;;0.90;;
16979;SDS011;42288;52.182;21.156;2022-07-29T07:29:14;4.57;;;1.10;;
16979;SDS011;42288;52.182;21.156;2022-07-29T07:31:39;1.80;;;0.90;;
16979;SDS011;42288;52.182;21.156;2022-07-29T07:34:05;1.80;;;1.00;;
16979;SDS011;42288;52.182;21.156;2022-07-29T07:36:30;1.40;;;0.80;;
16979;SDS011;42288;52.182;21.156;2022-07-29T07:38:56;2.87;;;0.97;;
16979;SDS011;42288;52.182;21.156;2022-07-29T07:41:22;3.50;;;1.00;;
16979;SDS011;42288;52.182;21.156;2022-07-29T07:43:47;2.57;;;1.10;;
16979;SDS011;42288;52.182;21.156;2022-07-29T07:46:13;2.77;;;0.90;;
16979;SDS011;42288;52.182;21.156;2022-07-29T07:48:39;3.37;;;1.03;;
16979;SDS011;42288;52.182;21.156;2022-07-29T07:51:05;3.27;;;1.20;;
16979;SDS011;42288;52.182;21.156;2022-07-29T07:53:32;8.60;;;1.27;;
16979;SDS011;42288;52.182;21.156;2022-07-29T07:55:57;2.93;;;1.07;;
16979;SDS011;42288;52.182;21.156;2022-07-29T07:58:23;5.67;;;1.70;;
16979;SDS011;42288;52.182;21.156;2022-07-29T08:00:49;5.80;;;1.17;;
16979;SDS011;42288;52.182;21.156;2022-07-29T08:03:14;6.10;;;1.63;;
16979;SDS011;42288;52.182;21.156;2022-07-29T08:05:40;3.23;;;0.97;;
16979;SDS011;42288;52.182;21.156;2022-07-29T08:08:06;6.13;;;1.87;;
16979;SDS011;42288;52.182;21.156;2022-07-29T08:10:32;5.80;;;1.70;;
16979;SDS011;42288;52.182;21.156;2022-07-29T08:13:16;4.23;;;1.00;;
16979;SDS011;42288;52.182;21.156;2022-07-29T08:15:42;4.60;;;1.67;;
16979;SDS011;42288;52.182;21.156;2022-07-29T08:18:09;3.80;;;0.90;;
16979;SDS011;42288;52.182;21.156;2022-07-29T08:20:35;3.57;;;1.30;;
16979;SDS011;42288;52.182;21.156;2022-07-29T08:23:03;4.60;;;1.10;;
16979;SDS011;42288;52.182;21.156;2022-07-29T08:25:29;4.27;;;1.10;;
16979;SDS011;42288;52.182;21.156;2022-07-29T08:27:55;3.50;;;0.90;;
16979;SDS011;42288;52.182;21.156;2022-07-29T08:30:21;4.43;;;1.40;;
16979;SDS011;42288;52.182;21.156;2022-07-29T08:32:47;3.20;;;1.00;;
16979;SDS011;42288;52.182;21.156;2022-07-29T08:35:13;5.60;;;1.50;;
16979;SDS011;42288;52.182;21.156;2022-07-29T08:37:39;13.30;;;1.33;;
16979;SDS011;42288;52.182;21.156;2022-07-29T08:40:04;3.30;;;1.47;;
16979;SDS011;42288;52.182;21.156;2022-07-29T08:42:31;4.53;;;1.30;;
16979;SDS011;42288;52.182;21.156;2022-07-29T08:44:56;4.20;;;1.30;;
16979;SDS011;42288;52.182;21.156;2022-07-29T08:47:23;6.35;;;1.50;;
16979;SDS011;42288;52.182;21.156;2022-07-29T08:49:51;4.78;;;1.30;;
16979;SDS011;42288;52.182;21.156;2022-07-29T08:52:17;5.07;;;1.10;;
16979;SDS011;42288;52.182;21.156;2022-07-29T08:54:44;2.95;;;1.15;;
16979;SDS011;42288;52.182;21.156;2022-07-29T08:57:12;3.83;;;1.07;;
16979;SDS011;42288;52.182;21.156;2022-07-29T08:59:39;3.10;;;1.17;;
16979;SDS011;42288;52.182;21.156;2022-07-29T09:02:12;3.67;;;0.97;;
16979;SDS011;42288;52.182;21.156;2022-07-29T09:04:44;3.03;;;1.05;;
16979;SDS011;42288;52.182;21.156;2022-07-29T09:07:10;4.00;;;1.20;;
16979;SDS011;42288;52.182;21.156;2022-07-29T09:09:44;4.57;;;1.20;;
16979;SDS011;42288;52.182;21.156;2022-07-29T09:12:11;4.32;;;1.05;;
16979;SDS011;42288;52.182;21.156;2022-07-29T09:14:37;8.20;;;1.27;;
16979;SDS011;42288;52.182;21.156;2022-07-29T09:17:03;3.33;;;0.90;;
16979;SDS011;42288;52.182;21.156;2022-07-29T09:19:30;4.13;;;1.00;;
16979;SDS011;42288;52.182;21.156;2022-07-29T09:21:58;4.03;;;0.90;;
16979;SDS011;42288;52.182;21.156;2022-07-29T09:29:46;3.07;;;0.90;;
16979;SDS011;42288;52.182;21.156;2022-07-29T09:32:12;3.20;;;1.30;;
16979;SDS011;42288;52.182;21.156;2022-07-29T09:34:37;2.38;;;1.10;;
16979;SDS011;42288;52.182;21.156;2022-07-29T09:37:03;2.97;;;0.90;;
16979;SDS011;42288;52.182;21.156;2022-07-29T09:39:37;3.77;;;1.23;;
16979;SDS011;42288;52.182;21.156;2022-07-29T09:42:10;5.05;;;1.17;;
16979;SDS011;42288;52.182;21.156;2022-07-29T09:44:44;5.47;;;0.90;;
16979;SDS011;42288;52.182;21.156;2022-07-29T09:47:13;2.27;;;1.20;;
16979;SDS011;42288;52.182;21.156;2022-07-29T09:50:12;3.17;;;0.90;;
16979;SDS011;42288;52.182;21.156;2022-07-29T09:52:31;2.95;;;0.93;;
16979;SDS011;42288;52.182;21.156;2022-07-29T09:55:06;4.07;;;0.90;;
16979;SDS011;42288;52.182;21.156;2022-07-29T09:57:33;5.28;;;1.00;;
16979;SDS011;42288;52.182;21.156;2022-07-29T10:02:35;6.75;;;1.00;;
16979;SDS011;42288;52.182;21.156;2022-07-29T10:05:03;3.78;;;1.02;;
16979;SDS011;42288;52.182;21.156;2022-07-29T10:07:43;5.13;;;0.98;;
16979;SDS011;42288;52.182;21.156;2022-07-29T10:10:09;4.43;;;0.95;;
16979;SDS011;42288;52.182;21.156;2022-07-29T10:12:34;1.70;;;0.73;;
16979;SDS011;42288;52.182;21.156;2022-07-29T10:15:18;3.33;;;0.90;;
16979;SDS011;42288;52.182;21.156;2022-07-29T10:17:45;2.05;;;0.70;;
16979;SDS011;42288;52.182;21.156;2022-07-29T10:20:11;6.20;;;1.20;;
16979;SDS011;42288;52.182;21.156;2022-07-29T10:22:37;2.10;;;0.90;;
16979;SDS011;42288;52.182;21.156;2022-07-29T10:25:03;4.47;;;1.25;;
16979;SDS011;42288;52.182;21.156;2022-07-29T10:27:29;3.20;;;0.70;;
16979;SDS011;42288;52.182;21.156;2022-07-29T10:29:55;2.47;;;0.80;;
16979;SDS011;42288;52.182;21.156;2022-07-29T10:32:30;7.07;;;1.05;;
16979;SDS011;42288;52.182;21.156;2022-07-29T10:35:06;1.35;;;0.85;;
16979;SDS011;42288;52.182;21.156;2022-07-29T10:38:02;4.15;;;0.95;;
16979;SDS011;42288;52.182;21.156;2022-07-29T10:40:34;3.10;;;0.80;;
16979;SDS011;42288;52.182;21.156;2022-07-29T10:43:44;4.65;;;1.67;;
16979;SDS011;42288;52.182;21.156;2022-07-29T10:46:11;6.35;;;1.40;;
16979;SDS011;42288;52.182;21.156;2022-07-29T10:57:12;3.05;;;0.80;;
16979;SDS011;42288;52.182;21.156;2022-07-29T10:59:38;1.77;;;0.80;;
16979;SDS011;42288;52.182;21.156;2022-07-29T11:05:07;3.00;;;0.90;;
16979;SDS011;42288;52.182;21.156;2022-07-29T11:10:37;2.08;;;0.80;;
16979;SDS011;42288;52.182;21.156;2022-07-29T11:13:04;1.13;;;0.70;;
16979;SDS011;42288;52.182;21.156;2022-07-29T11:15:32;3.67;;;0.90;;
16979;SDS011;42288;52.182;21.156;2022-07-29T11:18:19;2.22;;;0.80;;
16979;SDS011;42288;52.182;21.156;2022-07-29T11:20:48;4.82;;;0.82;;
16979;SDS011;42288;52.182;21.156;2022-07-29T11:34:41;2.70;;;0.63;;
16979;SDS011;42288;52.182;21.156;2022-07-29T11:44:54;1.27;;;0.65;;
16979;SDS011;42288;52.182;21.156;2022-07-29T11:47:30;3.13;;;0.77;;
16979;SDS011;42288;52.182;21.156;2022-07-29T11:49:58;1.65;;;0.70;;
16979;SDS011;42288;52.182;21.156;2022-07-29T11:55:03;2.83;;;0.70;;
16979;SDS011;42288;52.182;21.156;2022-07-29T11:57:31;4.45;;;1.02;;
16979;SDS011;42288;52.182;21.156;2022-07-29T11:59:59;6.10;;;0.90;;
16979;SDS011;42288;52.182;21.156;2022-07-29T12:02:25;4.13;;;0.70;;
16979;SDS011;42288;52.182;21.156;2022-07-29T12:05:07;2.83;;;0.68;;
16979;SDS011;42288;52.182;21.156;2022-07-29T12:07:34;3.70;;;0.80;;
16979;SDS011;42288;52.182;21.156;2022-07-29T12:10:00;4.90;;;0.88;;
16979;SDS011;42288;52.182;21.156;2022-07-29T12:12:27;2.30;;;0.70;;
16979;SDS011;42288;52.182;21.156;2022-07-29T12:14:52;5.05;;;0.80;;
16979;SDS011;42288;52.182;21.156;2022-07-29T12:17:26;3.38;;;0.88;;
16979;SDS011;42288;52.182;21.156;2022-07-29T12:19:56;1.55;;;0.80;;
16979;SDS011;42288;52.182;21.156;2022-07-29T12:25:03;3.45;;;0.90;;
16979;SDS011;42288;52.182;21.156;2022-07-29T12:27:34;2.08;;;0.73;;
16979;SDS011;42288;52.182;21.156;2022-07-29T12:30:02;3.47;;;1.05;;
16979;SDS011;42288;52.182;21.156;2022-07-29T12:32:32;2.97;;;0.80;;
16979;SDS011;42288;52.182;21.156;2022-07-29T12:34:58;6.85;;;0.80;;
16979;SDS011;42288;52.182;21.156;2022-07-29T12:37:25;1.58;;;0.70;;
16979;SDS011;42288;52.182;21.156;2022-07-29T12:39:50;5.80;;;0.80;;
16979;SDS011;42288;52.182;21.156;2022-07-29T12:42:16;3.83;;;0.80;;
16979;SDS011;42288;52.182;21.156;2022-07-29T12:44:43;4.47;;;0.85;;
16979;SDS011;42288;52.182;21.156;2022-07-29T12:47:13;2.10;;;0.70;;
16979;SDS011;42288;52.182;21.156;2022-07-29T12:49:40;2.03;;;0.95;;
16979;SDS011;42288;52.182;21.156;2022-07-29T12:54:58;3.90;;;0.80;;
16979;SDS011;42288;52.182;21.156;2022-07-29T12:57:24;1.48;;;0.70;;
16979;SDS011;42288;52.182;21.156;2022-07-29T13:00:09;5.35;;;0.85;;
16979;SDS011;42288;52.182;21.156;2022-07-29T13:02:38;2.38;;;0.93;;
16979;SDS011;42288;52.182;21.156;2022-07-29T13:05:04;4.20;;;0.90;;
16979;SDS011;42288;52.182;21.156;2022-07-29T13:07:31;2.13;;;0.90;;
16979;SDS011;42288;52.182;21.156;2022-07-29T13:12:36;7.13;;;1.00;;
16979;SDS011;42288;52.182;21.156;2022-07-29T13:15:11;4.53;;;0.90;;
16979;SDS011;42288;52.182;21.156;2022-07-29T13:17:42;1.27;;;0.70;;
16979;SDS011;42288;52.182;21.156;2022-07-29T13:20:11;1.13;;;0.60;;
16979;SDS011;42288;52.182;21.156;2022-07-29T13:22:38;7.05;;;1.10;;
16979;SDS011;42288;52.182;21.156;2022-07-29T13:25:05;5.72;;;1.05;;
16979;SDS011;42288;52.182;21.156;2022-07-29T13:27:32;2.88;;;0.85;;
16979;SDS011;42288;52.182;21.156;2022-07-29T13:30:00;2.28;;;0.73;;
16979;SDS011;42288;52.182;21.156;2022-07-29T13:32:27;3.65;;;0.90;;
16979;SDS011;42288;52.182;21.156;2022-07-29T13:34:58;2.10;;;1.00;;
16979;SDS011;42288;52.182;21.156;2022-07-29T13:37:25;3.50;;;0.80;;
16979;SDS011;42288;52.182;21.156;2022-07-29T13:39:54;2.80;;;0.80;;
16979;SDS011;42288;52.182;21.156;2022-07-29T13:42:20;4.43;;;0.90;;
16979;SDS011;42288;52.182;21.156;2022-07-29T13:44:47;1.67;;;0.80;;
16979;SDS011;42288;52.182;21.156;2022-07-29T13:47:15;3.20;;;0.80;;
16979;SDS011;42288;52.182;21.156;2022-07-29T13:49:41;3.15;;;0.80;;
16979;SDS011;42288;52.182;21.156;2022-07-29T13:52:07;2.35;;;0.80;;
16979;SDS011;42288;52.182;21.156;2022-07-29T13:54:32;2.65;;;0.70;;
16979;SDS011;42288;52.182;21.156;2022-07-29T13:57:00;0.93;;;0.70;;
16979;SDS011;42288;52.182;21.156;2022-07-29T13:59:26;3.50;;;0.90;;
16979;SDS011;42288;52.182;21.156;2022-07-29T14:01:51;1.95;;;0.70;;
16979;SDS011;42288;52.182;21.156;2022-07-29T14:04:17;1.90;;;0.73;;
16979;SDS011;42288;52.182;21.156;2022-07-29T14:06:43;1.90;;;0.80;;
16979;SDS011;42288;52.182;21.156;2022-07-29T14:09:09;4.10;;;2.45;;
16979;SDS011;42288;52.182;21.156;2022-07-29T14:11:35;3.53;;;0.98;;
16979;SDS011;42288;52.182;21.156;2022-07-29T14:14:00;5.25;;;0.98;;
16979;SDS011;42288;52.182;21.156;2022-07-29T14:16:26;2.17;;;0.80;;
16979;SDS011;42288;52.182;21.156;2022-07-29T14:18:52;3.47;;;1.30;;
16979;SDS011;42288;52.182;21.156;2022-07-29T14:21:17;2.58;;;1.02;;
16979;SDS011;42288;52.182;21.156;2022-07-29T14:23:43;3.33;;;2.20;;
16979;SDS011;42288;52.182;21.156;2022-07-29T14:26:09;2.38;;;1.63;;
16979;SDS011;42288;52.182;21.156;2022-07-29T14:28:34;2.60;;;1.63;;
16979;SDS011;42288;52.182;21.156;2022-07-29T14:31:00;3.50;;;1.27;;
16979;SDS011;42288;52.182;21.156;2022-07-29T14:33:25;8.07;;;0.90;;
16979;SDS011;42288;52.182;21.156;2022-07-29T14:35:51;2.03;;;1.00;;
16979;SDS011;42288;52.182;21.156;2022-07-29T14:38:16;5.72;;;2.58;;
16979;SDS011;42288;52.182;21.156;2022-07-29T14:40:42;5.43;;;1.30;;
16979;SDS011;42288;52.182;21.156;2022-07-29T14:43:07;2.72;;;1.17;;
16979;SDS011;42288;52.182;21.156;2022-07-29T14:45:33;1.65;;;0.70;;
16979;SDS011;42288;52.182;21.156;2022-07-29T14:47:59;2.60;;;0.85;;
16979;SDS011;42288;52.182;21.156;2022-07-29T14:50:25;4.82;;;2.08;;
16979;SDS011;42288;52.182;21.156;2022-07-29T14:52:51;3.58;;;1.05;;
16979;SDS011;42288;52.182;21.156;2022-07-29T14:55:17;1.38;;;0.70;;
16979;SDS011;42288;52.182;21.156;2022-07-29T14:57:43;1.65;;;0.85;;
16979;SDS011;42288;52.182;21.156;2022-07-29T15:00:08;3.53;;;2.10;;
16979;SDS011;42288;52.182;21.156;2022-07-29T15:02:35;7.82;;;2.65;;
16979;SDS011;42288;52.182;21.156;2022-07-29T15:05:01;17.50;;;1.65;;
16979;SDS011;42288;52.182;21.156;2022-07-29T15:07:27;4.00;;;1.65;;
16979;SDS011;42288;52.182;21.156;2022-07-29T15:09:52;2.15;;;1.20;;
16979;SDS011;42288;52.182;21.156;2022-07-29T15:12:18;2.75;;;1.02;;
16979;SDS011;42288;52.182;21.156;2022-07-29T15:14:44;4.10;;;1.08;;
16979;SDS011;42288;52.182;21.156;2022-07-29T15:17:09;2.95;;;1.00;;
16979;SDS011;42288;52.182;21.156;2022-07-29T15:19:35;1.25;;;0.90;;
16979;SDS011;42288;52.182;21.156;2022-07-29T15:22:00;4.43;;;0.60;;
16979;SDS011;42288;52.182;21.156;2022-07-29T15:24:26;3.63;;;0.80;;
16979;SDS011;42288;52.182;21.156;2022-07-29T15:26:52;4.88;;;1.05;;
16979;SDS011;42288;52.182;21.156;2022-07-29T15:29:17;4.45;;;0.98;;
16979;SDS011;42288;52.182;21.156;2022-07-29T15:31:43;5.40;;;1.05;;
16979;SDS011;42288;52.182;21.156;2022-07-29T15:34:09;1.90;;;0.90;;
16979;SDS011;42288;52.182;21.156;2022-07-29T15:36:34;3.17;;;0.85;;
16979;SDS011;42288;52.182;21.156;2022-07-29T15:39:00;4.93;;;1.10;;
16979;SDS011;42288;52.182;21.156;2022-07-29T15:41:26;10.52;;;1.20;;
16979;SDS011;42288;52.182;21.156;2022-07-29T15:43:51;3.25;;;1.05;;